Terminal Aerodrome Forecast
Issued by NWS Melbourne, FL

Home | Current Version | Previous Version | Text Only | Print | Product List | Glossary On
Versions: 1 2 3 4 5 6 7 8 9 10 11 12 13 14 15 16 17 18 19 20 21 22 23 24 25
887
FTUS42 KMLB 251722
TAFMCO
TAF
KMCO 251722Z 2518/2618 20007KT P6SM VCSH SCT040 SCT100
     FM252100 16008KT P6SM VCTS SCT040CB BKN060 BKN100
      TEMPO 2521/2601 3SM TSRA BKN030CB
     FM260200 VRB04KT P6SM VCSH SCT025 BKN040 OVC080
     FM260600 16003KT P6SM FEW030 SCT100 BKN250
     FM261300 19006KT P6SM SCT030 BKN080=

USA.gov is the U.S. government's official web portal to all federal, state and local government web resources and services.